Malatya/Erhac, Turkey
Current Conditions -  °F | °C
As of 4:20 PM on Saturday 20 Dec 2014 (Local Time) from LTAT Reporting Station
Overcast Overcast  
Wind Chill: 43°   Ceiling: 10000
Heat Index: 43°   Visibility: 6mi
Dew Point: 39°   Wind: 3mph
Humidity: 87%   Direction: 140°SE
Pressure: 30.15"   Gusts: NA
Location:  38.43°N, 38.08°E
Report Text: LTAT 201320Z 14003KT 9999 FEW020 SCT040 OVC100 06/04 Q1021 NOSIG
Loading
Personal Weather Stations






























Interactive Weather Map New forecast layout! Learn more

10-Day Weather Forecast

Advertisements
Track Severe Weather on mobile